sensor_id;sensor_type;location;lat;lon;timestamp;P1;durP1;ratioP1;P2;durP2;ratioP2
48514;SDS011;34309;47.260;2.796;2023-05-02T00:01:31;1.83;;;1.73;;
48514;SDS011;34309;47.260;2.796;2023-05-02T00:04:05;1.90;;;1.80;;
48514;SDS011;34309;47.260;2.796;2023-05-02T00:06:40;1.70;;;1.60;;
48514;SDS011;34309;47.260;2.796;2023-05-02T00:09:16;1.60;;;1.50;;
48514;SDS011;34309;47.260;2.796;2023-05-02T00:11:50;1.80;;;1.70;;
48514;SDS011;34309;47.260;2.796;2023-05-02T00:14:23;2.13;;;2.03;;
48514;SDS011;34309;47.260;2.796;2023-05-02T00:16:58;1.57;;;1.53;;
48514;SDS011;34309;47.260;2.796;2023-05-02T00:19:31;2.17;;;2.07;;
48514;SDS011;34309;47.260;2.796;2023-05-02T00:22:11;1.93;;;1.83;;
48514;SDS011;34309;47.260;2.796;2023-05-02T00:24:45;2.23;;;2.13;;
48514;SDS011;34309;47.260;2.796;2023-05-02T00:27:18;1.43;;;1.43;;
48514;SDS011;34309;47.260;2.796;2023-05-02T00:29:52;1.37;;;1.37;;
48514;SDS011;34309;47.260;2.796;2023-05-02T00:32:26;1.90;;;1.80;;
48514;SDS011;34309;47.260;2.796;2023-05-02T00:34:59;1.93;;;1.83;;
48514;SDS011;34309;47.260;2.796;2023-05-02T00:37:35;1.83;;;1.73;;
48514;SDS011;34309;47.260;2.796;2023-05-02T00:40:09;2.03;;;1.93;;
48514;SDS011;34309;47.260;2.796;2023-05-02T00:42:44;3.37;;;2.37;;
48514;SDS011;34309;47.260;2.796;2023-05-02T00:45:18;2.80;;;2.70;;
48514;SDS011;34309;47.260;2.796;2023-05-02T00:47:52;1.60;;;1.50;;
48514;SDS011;34309;47.260;2.796;2023-05-02T00:50:26;1.90;;;1.80;;
48514;SDS011;34309;47.260;2.796;2023-05-02T00:53:02;1.60;;;1.60;;
48514;SDS011;34309;47.260;2.796;2023-05-02T00:55:36;2.10;;;2.00;;
48514;SDS011;34309;47.260;2.796;2023-05-02T00:58:10;1.70;;;1.60;;
48514;SDS011;34309;47.260;2.796;2023-05-02T01:00:52;2.27;;;2.17;;
48514;SDS011;34309;47.260;2.796;2023-05-02T01:03:37;2.10;;;2.00;;
48514;SDS011;34309;47.260;2.796;2023-05-02T01:06:21;1.70;;;1.63;;
48514;SDS011;34309;47.260;2.796;2023-05-02T01:09:05;1.80;;;1.70;;
48514;SDS011;34309;47.260;2.796;2023-05-02T01:11:51;4.00;;;3.80;;
48514;SDS011;34309;47.260;2.796;2023-05-02T01:14:34;1.87;;;1.77;;
48514;SDS011;34309;47.260;2.796;2023-05-02T01:17:13;1.53;;;1.47;;
48514;SDS011;34309;47.260;2.796;2023-05-02T01:19:50;2.23;;;2.13;;
48514;SDS011;34309;47.260;2.796;2023-05-02T01:22:26;1.50;;;1.40;;
48514;SDS011;34309;47.260;2.796;2023-05-02T01:25:07;2.10;;;1.90;;
48514;SDS011;34309;47.260;2.796;2023-05-02T01:27:55;1.80;;;1.70;;
48514;SDS011;34309;47.260;2.796;2023-05-02T01:30:39;1.67;;;1.57;;
48514;SDS011;34309;47.260;2.796;2023-05-02T01:33:16;2.43;;;2.33;;
48514;SDS011;34309;47.260;2.796;2023-05-02T01:35:51;1.80;;;1.70;;
48514;SDS011;34309;47.260;2.796;2023-05-02T01:38:25;1.30;;;1.30;;
48514;SDS011;34309;47.260;2.796;2023-05-02T01:41:00;1.37;;;1.37;;
48514;SDS011;34309;47.260;2.796;2023-05-02T01:43:37;1.20;;;1.20;;
48514;SDS011;34309;47.260;2.796;2023-05-02T01:46:14;1.80;;;1.70;;
48514;SDS011;34309;47.260;2.796;2023-05-02T01:48:49;2.43;;;2.33;;
48514;SDS011;34309;47.260;2.796;2023-05-02T01:51:25;2.10;;;2.00;;
48514;SDS011;34309;47.260;2.796;2023-05-02T01:54:04;2.50;;;1.97;;
48514;SDS011;34309;47.260;2.796;2023-05-02T01:56:40;1.30;;;1.27;;
48514;SDS011;34309;47.260;2.796;2023-05-02T01:59:17;2.30;;;1.77;;
48514;SDS011;34309;47.260;2.796;2023-05-02T02:01:55;2.87;;;2.70;;
48514;SDS011;34309;47.260;2.796;2023-05-02T02:04:29;2.27;;;2.17;;
48514;SDS011;34309;47.260;2.796;2023-05-02T02:07:05;2.17;;;2.07;;
48514;SDS011;34309;47.260;2.796;2023-05-02T02:09:42;2.00;;;1.90;;
48514;SDS011;34309;47.260;2.796;2023-05-02T02:12:27;2.97;;;2.77;;
48514;SDS011;34309;47.260;2.796;2023-05-02T02:15:08;1.40;;;1.40;;
48514;SDS011;34309;47.260;2.796;2023-05-02T02:17:52;1.97;;;1.87;;
48514;SDS011;34309;47.260;2.796;2023-05-02T02:20:30;1.40;;;1.40;;
48514;SDS011;34309;47.260;2.796;2023-05-02T02:23:05;1.53;;;1.50;;
48514;SDS011;34309;47.260;2.796;2023-05-02T02:25:40;1.17;;;1.13;;
48514;SDS011;34309;47.260;2.796;2023-05-02T02:28:15;1.93;;;1.83;;
48514;SDS011;34309;47.260;2.796;2023-05-02T02:30:49;1.73;;;1.63;;
48514;SDS011;34309;47.260;2.796;2023-05-02T02:33:24;2.23;;;2.13;;
48514;SDS011;34309;47.260;2.796;2023-05-02T02:36:05;1.93;;;1.83;;
48514;SDS011;34309;47.260;2.796;2023-05-02T02:38:46;1.43;;;1.40;;
48514;SDS011;34309;47.260;2.796;2023-05-02T02:41:24;2.10;;;2.00;;
48514;SDS011;34309;47.260;2.796;2023-05-02T02:44:05;1.47;;;1.37;;
48514;SDS011;34309;47.260;2.796;2023-05-02T02:46:49;2.73;;;1.87;;
48514;SDS011;34309;47.260;2.796;2023-05-02T02:49:34;1.77;;;1.67;;
48514;SDS011;34309;47.260;2.796;2023-05-02T02:52:17;2.90;;;2.17;;
48514;SDS011;34309;47.260;2.796;2023-05-02T02:54:58;2.20;;;2.10;;
48514;SDS011;34309;47.260;2.796;2023-05-02T02:57:40;1.80;;;1.70;;
48514;SDS011;34309;47.260;2.796;2023-05-02T03:00:20;1.77;;;1.67;;
48514;SDS011;34309;47.260;2.796;2023-05-02T03:02:57;2.10;;;2.00;;
48514;SDS011;34309;47.260;2.796;2023-05-02T03:05:32;1.83;;;1.73;;
48514;SDS011;34309;47.260;2.796;2023-05-02T03:08:06;2.23;;;2.13;;
48514;SDS011;34309;47.260;2.796;2023-05-02T03:10:40;2.03;;;1.93;;
48514;SDS011;34309;47.260;2.796;2023-05-02T03:13:14;1.83;;;1.73;;
48514;SDS011;34309;47.260;2.796;2023-05-02T03:19:04;1.97;;;1.87;;
48514;SDS011;34309;47.260;2.796;2023-05-02T03:21:40;3.93;;;1.50;;
48514;SDS011;34309;47.260;2.796;2023-05-02T03:24:14;1.67;;;1.57;;
48514;SDS011;34309;47.260;2.796;2023-05-02T03:26:47;1.90;;;1.80;;
48514;SDS011;34309;47.260;2.796;2023-05-02T03:29:21;1.73;;;1.63;;
48514;SDS011;34309;47.260;2.796;2023-05-02T03:31:55;1.80;;;1.70;;
48514;SDS011;34309;47.260;2.796;2023-05-02T03:34:28;1.60;;;1.57;;
48514;SDS011;34309;47.260;2.796;2023-05-02T03:36:58;2.00;;;1.90;;
48514;SDS011;34309;47.260;2.796;2023-05-02T03:39:32;2.70;;;2.60;;
48514;SDS011;34309;47.260;2.796;2023-05-02T03:42:06;2.07;;;1.97;;
48514;SDS011;34309;47.260;2.796;2023-05-02T03:44:40;2.50;;;2.03;;
48514;SDS011;34309;47.260;2.796;2023-05-02T03:47:14;1.83;;;1.73;;
48514;SDS011;34309;47.260;2.796;2023-05-02T03:49:47;2.20;;;2.07;;
48514;SDS011;34309;47.260;2.796;2023-05-02T03:52:25;1.20;;;1.20;;
48514;SDS011;34309;47.260;2.796;2023-05-02T03:54:59;1.50;;;1.47;;
48514;SDS011;34309;47.260;2.796;2023-05-02T03:57:33;2.17;;;2.07;;
48514;SDS011;34309;47.260;2.796;2023-05-02T04:00:07;1.70;;;1.60;;
48514;SDS011;34309;47.260;2.796;2023-05-02T04:02:41;1.93;;;1.83;;
48514;SDS011;34309;47.260;2.796;2023-05-02T04:05:16;2.17;;;2.07;;
48514;SDS011;34309;47.260;2.796;2023-05-02T04:07:51;1.80;;;1.70;;
48514;SDS011;34309;47.260;2.796;2023-05-02T04:10:27;1.40;;;1.40;;
48514;SDS011;34309;47.260;2.796;2023-05-02T04:13:01;2.80;;;2.70;;
48514;SDS011;34309;47.260;2.796;2023-05-02T04:15:35;2.30;;;2.10;;
48514;SDS011;34309;47.260;2.796;2023-05-02T04:18:09;2.13;;;1.90;;
48514;SDS011;34309;47.260;2.796;2023-05-02T04:20:43;1.73;;;1.63;;
48514;SDS011;34309;47.260;2.796;2023-05-02T04:23:18;1.97;;;1.80;;
48514;SDS011;34309;47.260;2.796;2023-05-02T04:25:52;2.00;;;1.90;;
48514;SDS011;34309;47.260;2.796;2023-05-02T04:28:26;2.00;;;1.90;;
48514;SDS011;34309;47.260;2.796;2023-05-02T04:31:00;2.40;;;2.30;;
48514;SDS011;34309;47.260;2.796;2023-05-02T04:33:34;2.17;;;2.07;;
48514;SDS011;34309;47.260;2.796;2023-05-02T04:36:08;1.70;;;1.60;;
48514;SDS011;34309;47.260;2.796;2023-05-02T04:38:44;2.10;;;2.00;;
48514;SDS011;34309;47.260;2.796;2023-05-02T04:41:17;2.20;;;2.10;;
48514;SDS011;34309;47.260;2.796;2023-05-02T04:43:51;2.07;;;1.97;;
48514;SDS011;34309;47.260;2.796;2023-05-02T04:46:25;4.27;;;2.20;;
48514;SDS011;34309;47.260;2.796;2023-05-02T04:48:59;1.70;;;1.60;;
48514;SDS011;34309;47.260;2.796;2023-05-02T04:51:33;1.53;;;1.50;;
48514;SDS011;34309;47.260;2.796;2023-05-02T04:54:08;1.70;;;1.60;;
48514;SDS011;34309;47.260;2.796;2023-05-02T04:56:41;1.60;;;1.50;;
48514;SDS011;34309;47.260;2.796;2023-05-02T04:59:15;1.33;;;1.33;;
48514;SDS011;34309;47.260;2.796;2023-05-02T05:01:49;2.40;;;2.30;;
48514;SDS011;34309;47.260;2.796;2023-05-02T05:04:23;2.30;;;2.20;;
48514;SDS011;34309;47.260;2.796;2023-05-02T05:06:57;2.97;;;2.80;;
48514;SDS011;34309;47.260;2.796;2023-05-02T05:09:33;1.77;;;1.67;;
48514;SDS011;34309;47.260;2.796;2023-05-02T05:12:06;1.77;;;1.67;;
48514;SDS011;34309;47.260;2.796;2023-05-02T05:14:40;1.60;;;1.50;;
48514;SDS011;34309;47.260;2.796;2023-05-02T05:17:14;2.00;;;1.90;;
48514;SDS011;34309;47.260;2.796;2023-05-02T05:19:48;1.30;;;1.30;;
48514;SDS011;34309;47.260;2.796;2023-05-02T05:22:22;2.10;;;2.00;;
48514;SDS011;34309;47.260;2.796;2023-05-02T05:24:57;3.40;;;3.20;;
48514;SDS011;34309;47.260;2.796;2023-05-02T05:27:31;1.97;;;1.87;;
48514;SDS011;34309;47.260;2.796;2023-05-02T05:30:06;1.83;;;1.73;;
48514;SDS011;34309;47.260;2.796;2023-05-02T05:32:40;1.70;;;1.60;;
48514;SDS011;34309;47.260;2.796;2023-05-02T05:35:14;1.87;;;1.77;;
48514;SDS011;34309;47.260;2.796;2023-05-02T05:37:48;2.03;;;1.93;;
48514;SDS011;34309;47.260;2.796;2023-05-02T05:40:23;4.37;;;3.93;;
48514;SDS011;34309;47.260;2.796;2023-05-02T05:42:57;1.93;;;1.83;;
48514;SDS011;34309;47.260;2.796;2023-05-02T05:45:31;2.00;;;1.90;;
48514;SDS011;34309;47.260;2.796;2023-05-02T05:48:05;1.90;;;1.80;;
48514;SDS011;34309;47.260;2.796;2023-05-02T05:50:39;2.57;;;2.47;;
48514;SDS011;34309;47.260;2.796;2023-05-02T05:53:13;2.13;;;2.00;;
48514;SDS011;34309;47.260;2.796;2023-05-02T05:55:48;2.10;;;2.00;;
48514;SDS011;34309;47.260;2.796;2023-05-02T05:58:22;1.70;;;1.60;;
48514;SDS011;34309;47.260;2.796;2023-05-02T06:00:56;2.53;;;2.43;;
48514;SDS011;34309;47.260;2.796;2023-05-02T06:03:30;3.33;;;3.03;;
48514;SDS011;34309;47.260;2.796;2023-05-02T06:06:04;1.33;;;1.33;;
48514;SDS011;34309;47.260;2.796;2023-05-02T06:08:38;2.27;;;2.17;;
48514;SDS011;34309;47.260;2.796;2023-05-02T06:11:09;1.97;;;1.87;;
48514;SDS011;34309;47.260;2.796;2023-05-02T06:13:42;2.50;;;2.37;;
48514;SDS011;34309;47.260;2.796;2023-05-02T06:16:16;2.43;;;2.23;;
48514;SDS011;34309;47.260;2.796;2023-05-02T06:18:50;2.20;;;2.10;;
48514;SDS011;34309;47.260;2.796;2023-05-02T06:21:24;1.37;;;1.37;;
48514;SDS011;34309;47.260;2.796;2023-05-02T06:23:58;2.20;;;2.10;;
48514;SDS011;34309;47.260;2.796;2023-05-02T06:26:33;1.70;;;1.60;;
48514;SDS011;34309;47.260;2.796;2023-05-02T06:29:06;2.63;;;2.47;;
48514;SDS011;34309;47.260;2.796;2023-05-02T06:31:40;1.90;;;1.80;;
48514;SDS011;34309;47.260;2.796;2023-05-02T06:34:14;2.20;;;2.10;;
48514;SDS011;34309;47.260;2.796;2023-05-02T06:36:47;2.03;;;1.93;;
48514;SDS011;34309;47.260;2.796;2023-05-02T06:39:25;2.33;;;2.23;;
48514;SDS011;34309;47.260;2.796;2023-05-02T06:42:01;4.23;;;3.93;;
48514;SDS011;34309;47.260;2.796;2023-05-02T06:44:35;1.87;;;1.77;;
48514;SDS011;34309;47.260;2.796;2023-05-02T06:47:09;1.90;;;1.80;;
48514;SDS011;34309;47.260;2.796;2023-05-02T06:49:42;2.37;;;2.27;;
48514;SDS011;34309;47.260;2.796;2023-05-02T06:52:16;2.27;;;2.17;;
48514;SDS011;34309;47.260;2.796;2023-05-02T06:54:50;1.97;;;1.87;;
48514;SDS011;34309;47.260;2.796;2023-05-02T06:57:25;1.90;;;1.80;;
48514;SDS011;34309;47.260;2.796;2023-05-02T06:59:59;1.90;;;1.80;;
48514;SDS011;34309;47.260;2.796;2023-05-02T07:02:32;2.37;;;2.20;;
48514;SDS011;34309;47.260;2.796;2023-05-02T07:05:06;2.43;;;2.33;;
48514;SDS011;34309;47.260;2.796;2023-05-02T07:07:36;2.13;;;2.03;;
48514;SDS011;34309;47.260;2.796;2023-05-02T07:10:10;2.10;;;2.00;;
48514;SDS011;34309;47.260;2.796;2023-05-02T07:12:45;1.43;;;1.30;;
48514;SDS011;34309;47.260;2.796;2023-05-02T07:15:19;1.73;;;1.53;;
48514;SDS011;34309;47.260;2.796;2023-05-02T07:17:54;1.50;;;1.40;;
48514;SDS011;34309;47.260;2.796;2023-05-02T07:20:28;2.13;;;1.97;;
48514;SDS011;34309;47.260;2.796;2023-05-02T07:23:02;3.33;;;3.13;;
48514;SDS011;34309;47.260;2.796;2023-05-02T07:25:36;2.10;;;2.00;;
48514;SDS011;34309;47.260;2.796;2023-05-02T07:28:07;2.73;;;2.63;;
48514;SDS011;34309;47.260;2.796;2023-05-02T07:30:40;2.17;;;2.07;;
48514;SDS011;34309;47.260;2.796;2023-05-02T07:33:14;2.80;;;2.67;;
48514;SDS011;34309;47.260;2.796;2023-05-02T07:35:48;1.40;;;1.37;;
48514;SDS011;34309;47.260;2.796;2023-05-02T07:38:22;2.07;;;1.97;;
48514;SDS011;34309;47.260;2.796;2023-05-02T07:40:56;2.20;;;2.10;;
48514;SDS011;34309;47.260;2.796;2023-05-02T07:43:32;1.17;;;1.17;;
48514;SDS011;34309;47.260;2.796;2023-05-02T07:46:06;1.67;;;1.57;;
48514;SDS011;34309;47.260;2.796;2023-05-02T07:48:40;1.53;;;1.47;;
48514;SDS011;34309;47.260;2.796;2023-05-02T07:51:14;1.97;;;1.87;;
48514;SDS011;34309;47.260;2.796;2023-05-02T07:53:50;1.40;;;1.40;;
48514;SDS011;34309;47.260;2.796;2023-05-02T07:56:26;1.60;;;1.50;;
48514;SDS011;34309;47.260;2.796;2023-05-02T07:59:02;2.27;;;2.17;;
48514;SDS011;34309;47.260;2.796;2023-05-02T08:01:35;1.70;;;1.60;;
48514;SDS011;34309;47.260;2.796;2023-05-02T08:04:09;2.00;;;1.90;;
48514;SDS011;34309;47.260;2.796;2023-05-02T08:06:43;1.87;;;1.77;;
48514;SDS011;34309;47.260;2.796;2023-05-02T08:09:17;2.20;;;2.10;;
48514;SDS011;34309;47.260;2.796;2023-05-02T08:11:50;2.00;;;1.90;;
48514;SDS011;34309;47.260;2.796;2023-05-02T08:14:25;1.87;;;1.77;;
48514;SDS011;34309;47.260;2.796;2023-05-02T08:16:59;1.47;;;1.40;;
48514;SDS011;34309;47.260;2.796;2023-05-02T08:19:33;2.27;;;2.17;;
48514;SDS011;34309;47.260;2.796;2023-05-02T08:22:06;2.13;;;2.03;;
48514;SDS011;34309;47.260;2.796;2023-05-02T08:24:40;1.90;;;1.80;;
48514;SDS011;34309;47.260;2.796;2023-05-02T08:27:14;1.80;;;1.70;;
48514;SDS011;34309;47.260;2.796;2023-05-02T08:29:49;1.70;;;1.60;;
48514;SDS011;34309;47.260;2.796;2023-05-02T08:32:23;2.20;;;2.10;;
48514;SDS011;34309;47.260;2.796;2023-05-02T08:34:57;2.77;;;2.53;;
48514;SDS011;34309;47.260;2.796;2023-05-02T08:37:30;2.10;;;2.00;;
48514;SDS011;34309;47.260;2.796;2023-05-02T08:40:04;2.97;;;2.77;;
48514;SDS011;34309;47.260;2.796;2023-05-02T08:42:43;1.93;;;1.83;;
48514;SDS011;34309;47.260;2.796;2023-05-02T08:45:18;1.93;;;1.83;;
48514;SDS011;34309;47.260;2.796;2023-05-02T08:47:52;3.00;;;2.80;;
48514;SDS011;34309;47.260;2.796;2023-05-02T08:50:22;2.00;;;1.83;;
48514;SDS011;34309;47.260;2.796;2023-05-02T08:52:56;3.43;;;3.23;;
48514;SDS011;34309;47.260;2.796;2023-05-02T08:55:31;4.10;;;2.73;;
48514;SDS011;34309;47.260;2.796;2023-05-02T08:58:06;1.87;;;1.77;;
48514;SDS011;34309;47.260;2.796;2023-05-02T09:00:42;2.63;;;2.43;;
48514;SDS011;34309;47.260;2.796;2023-05-02T09:03:20;3.33;;;3.13;;
48514;SDS011;34309;47.260;2.796;2023-05-02T09:06:03;2.17;;;2.00;;
48514;SDS011;34309;47.260;2.796;2023-05-02T09:08:38;2.80;;;2.67;;
48514;SDS011;34309;47.260;2.796;2023-05-02T09:11:14;2.37;;;2.23;;
48514;SDS011;34309;47.260;2.796;2023-05-02T09:13:48;5.53;;;3.30;;
48514;SDS011;34309;47.260;2.796;2023-05-02T09:16:25;2.30;;;2.10;;
48514;SDS011;34309;47.260;2.796;2023-05-02T09:19:00;2.67;;;2.47;;
48514;SDS011;34309;47.260;2.796;2023-05-02T09:21:34;2.13;;;2.03;;
48514;SDS011;34309;47.260;2.796;2023-05-02T09:24:14;2.53;;;2.07;;
48514;SDS011;34309;47.260;2.796;2023-05-02T09:26:56;2.47;;;2.37;;
48514;SDS011;34309;47.260;2.796;2023-05-02T09:29:32;3.90;;;3.60;;
48514;SDS011;34309;47.260;2.796;2023-05-02T09:32:09;4.00;;;3.70;;
48514;SDS011;34309;47.260;2.796;2023-05-02T09:34:46;2.63;;;2.43;;
48514;SDS011;34309;47.260;2.796;2023-05-02T09:37:37;2.63;;;2.53;;
48514;SDS011;34309;47.260;2.796;2023-05-02T09:40:12;4.30;;;2.00;;
48514;SDS011;34309;47.260;2.796;2023-05-02T09:42:46;2.87;;;2.53;;
48514;SDS011;34309;47.260;2.796;2023-05-02T09:45:20;5.80;;;2.40;;
48514;SDS011;34309;47.260;2.796;2023-05-02T09:48:00;3.87;;;3.57;;
48514;SDS011;34309;47.260;2.796;2023-05-02T09:50:34;3.27;;;3.07;;
48514;SDS011;34309;47.260;2.796;2023-05-02T09:53:09;2.63;;;2.43;;
48514;SDS011;34309;47.260;2.796;2023-05-02T09:55:43;3.60;;;3.30;;
48514;SDS011;34309;47.260;2.796;2023-05-02T09:58:20;3.70;;;3.40;;
48514;SDS011;34309;47.260;2.796;2023-05-02T10:00:54;3.07;;;2.87;;
48514;SDS011;34309;47.260;2.796;2023-05-02T10:03:35;7.03;;;3.07;;
48514;SDS011;34309;47.260;2.796;2023-05-02T10:06:05;2.80;;;2.60;;
48514;SDS011;34309;47.260;2.796;2023-05-02T10:08:41;3.40;;;3.17;;
48514;SDS011;34309;47.260;2.796;2023-05-02T10:11:17;5.57;;;3.13;;
48514;SDS011;34309;47.260;2.796;2023-05-02T10:13:52;2.83;;;2.63;;
48514;SDS011;34309;47.260;2.796;2023-05-02T10:16:26;9.57;;;3.63;;
48514;SDS011;34309;47.260;2.796;2023-05-02T10:19:06;4.73;;;2.80;;
48514;SDS011;34309;47.260;2.796;2023-05-02T10:21:41;13.20;;;3.93;;
48514;SDS011;34309;47.260;2.796;2023-05-02T10:24:16;3.90;;;2.20;;
48514;SDS011;34309;47.260;2.796;2023-05-02T10:26:50;6.40;;;3.03;;
48514;SDS011;34309;47.260;2.796;2023-05-02T10:29:26;1.77;;;1.67;;
48514;SDS011;34309;47.260;2.796;2023-05-02T10:32:01;3.73;;;3.23;;
48514;SDS011;34309;47.260;2.796;2023-05-02T10:34:38;4.70;;;3.40;;
48514;SDS011;34309;47.260;2.796;2023-05-02T10:37:13;3.27;;;3.07;;
48514;SDS011;34309;47.260;2.796;2023-05-02T10:39:49;4.00;;;2.17;;
48514;SDS011;34309;47.260;2.796;2023-05-02T10:42:23;11.90;;;2.43;;
48514;SDS011;34309;47.260;2.796;2023-05-02T10:44:58;3.23;;;3.07;;
48514;SDS011;34309;47.260;2.796;2023-05-02T10:47:32;3.20;;;3.00;;
48514;SDS011;34309;47.260;2.796;2023-05-02T10:50:09;2.40;;;1.97;;
48514;SDS011;34309;47.260;2.796;2023-05-02T10:52:43;4.17;;;3.47;;
48514;SDS011;34309;47.260;2.796;2023-05-02T10:55:17;5.83;;;2.80;;
48514;SDS011;34309;47.260;2.796;2023-05-02T11:00:54;6.70;;;2.57;;
48514;SDS011;34309;47.260;2.796;2023-05-02T11:04:09;16.67;;;3.07;;
48514;SDS011;34309;47.260;2.796;2023-05-02T11:09:51;2.40;;;2.30;;
48514;SDS011;34309;47.260;2.796;2023-05-02T11:12:44;3.67;;;3.20;;
48514;SDS011;34309;47.260;2.796;2023-05-02T11:18:28;3.43;;;2.17;;
48514;SDS011;34309;47.260;2.796;2023-05-02T11:21:31;2.23;;;2.13;;
48514;SDS011;34309;47.260;2.796;2023-05-02T11:30:12;3.50;;;3.20;;
48514;SDS011;34309;47.260;2.796;2023-05-02T11:35:48;2.90;;;2.67;;
48514;SDS011;34309;47.260;2.796;2023-05-02T11:38:22;4.30;;;3.30;;
48514;SDS011;34309;47.260;2.796;2023-05-02T11:40:58;3.47;;;2.80;;
48514;SDS011;34309;47.260;2.796;2023-05-02T11:43:34;3.77;;;3.37;;
48514;SDS011;34309;47.260;2.796;2023-05-02T11:46:08;2.67;;;2.47;;
48514;SDS011;34309;47.260;2.796;2023-05-02T11:48:42;2.07;;;1.97;;
48514;SDS011;34309;47.260;2.796;2023-05-02T11:51:21;2.40;;;2.30;;
48514;SDS011;34309;47.260;2.796;2023-05-02T11:53:55;4.63;;;2.60;;
48514;SDS011;34309;47.260;2.796;2023-05-02T11:56:30;3.70;;;2.13;;
48514;SDS011;34309;47.260;2.796;2023-05-02T11:59:04;5.60;;;2.83;;
48514;SDS011;34309;47.260;2.796;2023-05-02T12:01:46;2.23;;;2.13;;
48514;SDS011;34309;47.260;2.796;2023-05-02T12:04:20;1.77;;;1.67;;
48514;SDS011;34309;47.260;2.796;2023-05-02T12:06:54;1.50;;;1.43;;
48514;SDS011;34309;47.260;2.796;2023-05-02T12:09:28;2.57;;;2.33;;
48514;SDS011;34309;47.260;2.796;2023-05-02T12:12:03;2.27;;;2.17;;
48514;SDS011;34309;47.260;2.796;2023-05-02T12:14:37;2.33;;;2.23;;
48514;SDS011;34309;47.260;2.796;2023-05-02T12:17:12;3.20;;;2.90;;
48514;SDS011;34309;47.260;2.796;2023-05-02T12:19:46;3.20;;;2.90;;
48514;SDS011;34309;47.260;2.796;2023-05-02T12:22:21;1.83;;;1.73;;
48514;SDS011;34309;47.260;2.796;2023-05-02T12:24:55;4.77;;;4.33;;
48514;SDS011;34309;47.260;2.796;2023-05-02T12:27:31;2.03;;;1.83;;
48514;SDS011;34309;47.260;2.796;2023-05-02T12:30:06;2.70;;;2.23;;
48514;SDS011;34309;47.260;2.796;2023-05-02T12:32:40;3.00;;;2.87;;
48514;SDS011;34309;47.260;2.796;2023-05-02T12:35:20;10.03;;;3.00;;
48514;SDS011;34309;47.260;2.796;2023-05-02T12:37:54;3.00;;;2.33;;
48514;SDS011;34309;47.260;2.796;2023-05-02T12:40:46;4.57;;;2.80;;
48514;SDS011;34309;47.260;2.796;2023-05-02T12:43:22;2.10;;;2.00;;
48514;SDS011;34309;47.260;2.796;2023-05-02T12:46:08;2.47;;;2.37;;
48514;SDS011;34309;47.260;2.796;2023-05-02T12:48:42;2.23;;;2.03;;
48514;SDS011;34309;47.260;2.796;2023-05-02T12:51:19;2.53;;;1.97;;
48514;SDS011;34309;47.260;2.796;2023-05-02T12:53:54;3.93;;;3.23;;
48514;SDS011;34309;47.260;2.796;2023-05-02T12:56:28;6.47;;;2.93;;
48514;SDS011;34309;47.260;2.796;2023-05-02T12:59:05;4.67;;;4.07;;
48514;SDS011;34309;47.260;2.796;2023-05-02T13:01:40;15.13;;;5.33;;
48514;SDS011;34309;47.260;2.796;2023-05-02T13:04:14;8.37;;;5.67;;
48514;SDS011;34309;47.260;2.796;2023-05-02T13:06:47;17.03;;;6.67;;
48514;SDS011;34309;47.260;2.796;2023-05-02T13:09:22;13.97;;;7.23;;
48514;SDS011;34309;47.260;2.796;2023-05-02T13:11:56;32.70;;;7.50;;
48514;SDS011;34309;47.260;2.796;2023-05-02T13:14:32;10.47;;;5.07;;
48514;SDS011;34309;47.260;2.796;2023-05-02T13:17:06;24.70;;;8.40;;
48514;SDS011;34309;47.260;2.796;2023-05-02T13:19:40;17.17;;;5.70;;
48514;SDS011;34309;47.260;2.796;2023-05-02T13:22:13;10.67;;;6.37;;
48514;SDS011;34309;47.260;2.796;2023-05-02T13:24:47;16.67;;;6.73;;
48514;SDS011;34309;47.260;2.796;2023-05-02T13:27:21;13.40;;;8.13;;
48514;SDS011;34309;47.260;2.796;2023-05-02T13:29:57;14.97;;;8.70;;
48514;SDS011;34309;47.260;2.796;2023-05-02T13:32:30;11.03;;;6.23;;
48514;SDS011;34309;47.260;2.796;2023-05-02T13:35:05;12.47;;;6.47;;
48514;SDS011;34309;47.260;2.796;2023-05-02T13:37:39;14.33;;;6.40;;
48514;SDS011;34309;47.260;2.796;2023-05-02T13:40:13;17.93;;;7.87;;
48514;SDS011;34309;47.260;2.796;2023-05-02T13:42:47;18.20;;;8.07;;
48514;SDS011;34309;47.260;2.796;2023-05-02T13:45:22;14.97;;;6.97;;
48514;SDS011;34309;47.260;2.796;2023-05-02T13:47:56;17.07;;;7.17;;
48514;SDS011;34309;47.260;2.796;2023-05-02T13:50:30;18.07;;;6.30;;
48514;SDS011;34309;47.260;2.796;2023-05-02T13:53:07;7.30;;;4.67;;
48514;SDS011;34309;47.260;2.796;2023-05-02T13:55:41;7.47;;;5.73;;
48514;SDS011;34309;47.260;2.796;2023-05-02T13:58:15;5.63;;;5.13;;
48514;SDS011;34309;47.260;2.796;2023-05-02T14:00:51;15.50;;;6.00;;
48514;SDS011;34309;47.260;2.796;2023-05-02T14:03:26;13.83;;;6.77;;
48514;SDS011;34309;47.260;2.796;2023-05-02T14:06:00;13.20;;;6.70;;
48514;SDS011;34309;47.260;2.796;2023-05-02T14:08:34;9.87;;;7.37;;
48514;SDS011;34309;47.260;2.796;2023-05-02T14:11:08;7.60;;;5.07;;
48514;SDS011;34309;47.260;2.796;2023-05-02T14:13:42;9.00;;;6.13;;
48514;SDS011;34309;47.260;2.796;2023-05-02T14:16:17;5.23;;;4.60;;
48514;SDS011;34309;47.260;2.796;2023-05-02T14:18:51;18.67;;;8.03;;
48514;SDS011;34309;47.260;2.796;2023-05-02T14:21:25;20.00;;;7.20;;
48514;SDS011;34309;47.260;2.796;2023-05-02T14:23:59;6.93;;;4.87;;
48514;SDS011;34309;47.260;2.796;2023-05-02T14:26:33;8.70;;;5.37;;
48514;SDS011;34309;47.260;2.796;2023-05-02T14:29:07;9.40;;;4.87;;
48514;SDS011;34309;47.260;2.796;2023-05-02T14:31:42;8.73;;;6.13;;
48514;SDS011;34309;47.260;2.796;2023-05-02T14:34:17;9.93;;;4.37;;
48514;SDS011;34309;47.260;2.796;2023-05-02T14:36:52;7.40;;;3.83;;
48514;SDS011;34309;47.260;2.796;2023-05-02T14:39:26;7.13;;;4.27;;
48514;SDS011;34309;47.260;2.796;2023-05-02T14:42:00;10.03;;;4.53;;
48514;SDS011;34309;47.260;2.796;2023-05-02T14:44:34;6.83;;;4.23;;
48514;SDS011;34309;47.260;2.796;2023-05-02T14:47:10;28.93;;;5.67;;
48514;SDS011;34309;47.260;2.796;2023-05-02T14:49:43;9.90;;;4.47;;
48514;SDS011;34309;47.260;2.796;2023-05-02T14:52:17;9.53;;;4.50;;
48514;SDS011;34309;47.260;2.796;2023-05-02T14:54:51;13.73;;;4.67;;
48514;SDS011;34309;47.260;2.796;2023-05-02T14:57:25;10.07;;;4.87;;
48514;SDS011;34309;47.260;2.796;2023-05-02T14:59:59;5.57;;;3.63;;
48514;SDS011;34309;47.260;2.796;2023-05-02T15:02:34;8.93;;;5.10;;
48514;SDS011;34309;47.260;2.796;2023-05-02T15:05:08;13.07;;;4.63;;
48514;SDS011;34309;47.260;2.796;2023-05-02T15:07:43;7.17;;;4.87;;
48514;SDS011;34309;47.260;2.796;2023-05-02T15:10:17;10.40;;;3.47;;
48514;SDS011;34309;47.260;2.796;2023-05-02T15:12:51;8.53;;;4.37;;
48514;SDS011;34309;47.260;2.796;2023-05-02T15:15:24;4.50;;;3.53;;
48514;SDS011;34309;47.260;2.796;2023-05-02T15:18:02;8.83;;;3.60;;
48514;SDS011;34309;47.260;2.796;2023-05-02T15:20:36;5.20;;;3.23;;
48514;SDS011;34309;47.260;2.796;2023-05-02T15:23:09;16.07;;;5.03;;
48514;SDS011;34309;47.260;2.796;2023-05-02T15:25:43;5.60;;;4.70;;
48514;SDS011;34309;47.260;2.796;2023-05-02T15:28:17;3.93;;;3.50;;
48514;SDS011;34309;47.260;2.796;2023-05-02T15:30:51;12.30;;;4.03;;
48514;SDS011;34309;47.260;2.796;2023-05-02T15:33:26;6.13;;;3.90;;
48514;SDS011;34309;47.260;2.796;2023-05-02T15:36:00;4.47;;;4.07;;
48514;SDS011;34309;47.260;2.796;2023-05-02T15:38:34;7.73;;;4.40;;
48514;SDS011;34309;47.260;2.796;2023-05-02T15:41:10;9.87;;;3.63;;
48514;SDS011;34309;47.260;2.796;2023-05-02T15:43:43;6.07;;;3.20;;
48514;SDS011;34309;47.260;2.796;2023-05-02T15:46:17;5.07;;;3.27;;
48514;SDS011;34309;47.260;2.796;2023-05-02T15:48:53;14.03;;;4.10;;
48514;SDS011;34309;47.260;2.796;2023-05-02T15:51:26;2.77;;;2.57;;
48514;SDS011;34309;47.260;2.796;2023-05-02T15:54:00;6.80;;;4.17;;
48514;SDS011;34309;47.260;2.796;2023-05-02T15:56:34;6.73;;;3.43;;